| time (UTC) | temp F | wind direction | speed MPH | gust MPH | rain 1hr in | rain 24hr in | rain mn in | humidity % | barometer mb |
| 20260503211811 | 78 | 304 | 3.0 | 8.0 | 0.00 | 0.00 | 0.00 | 44 | 1009.9 |
| 20260503211308 | 78 | 284 | 2.0 | 9.0 | 0.00 | 0.00 | 0.00 | 46 | 1009.8 |
| 20260503210807 | 78 | 340 | 3.0 | 10.0 | 0.00 | 0.00 | 0.00 | 47 | 1009.7 |
| 20260503210306 | 77 | 34 | 3.0 | 8.0 | 0.00 | 0.00 | 0.00 | 47 | 1010.0 |
| 20260503205800 | 77 | 283 | 3.0 | 7.0 | 0.00 | 0.00 | 0.00 | 48 | 1010.1 |
| 20260503205257 | 78 | 294 | 5.0 | 7.0 | 0.00 | 0.00 | 0.00 | 46 | 1010.0 |
| 20260503204753 | 78 | 344 | 4.0 | 8.0 | 0.00 | 0.00 | 0.00 | 47 | 1009.9 |
| 20260503204251 | 77 | 310 | 3.0 | 10.0 | 0.00 | 0.00 | 0.00 | 47 | 1010.0 |
| 20260503203748 | 77 | 268 | 1.0 | 4.0 | 0.00 | 0.00 | 0.00 | 47 | 1010.1 |
| 20260503203245 | 77 | 304 | 4.0 | 6.0 | 0.00 | 0.00 | 0.00 | 45 | 1010.2 |
| 20260503202742 | 76 | 284 | 5.0 | 5.0 | 0.00 | 0.00 | 0.00 | 48 | 1010.4 |
| 20260503202240 | 75 | 278 | 3.0 | 8.0 | 0.00 | 0.00 | 0.00 | 48 | 1010.0 |
| 20260503201738 | 75 | 321 | 2.0 | 6.0 | 0.00 | 0.00 | 0.00 | 49 | 1010.2 |
| 20260503201235 | 75 | 288 | 2.0 | 9.0 | 0.00 | 0.00 | 0.00 | 48 | 1010.5 |
| 20260503200732 | 76 | 284 | 5.0 | 9.0 | 0.00 | 0.00 | 0.00 | 47 | 1010.3 |
| 20260503200228 | 75 | 39 | 4.0 | 7.0 | 0.00 | 0.00 | 0.00 | 49 | 1010.6 |
| 20260503195725 | 75 | 342 | 2.0 | 5.0 | 0.00 | 0.00 | 0.00 | 50 | 1010.5 |
| 20260503195222 | 75 | 346 | 3.0 | 7.0 | 0.00 | 0.00 | 0.00 | 48 | 1011.0 |
| 20260503194720 | 75 | 338 | 4.0 | 7.0 | 0.00 | 0.00 | 0.00 | 48 | 1011.0 |
| 20260503194215 | 74 | 284 | 3.0 | 8.0 | 0.00 | 0.00 | 0.00 | 49 | 1010.8 |
| 20260503193711 | 74 | 261 | 0.0 | 6.0 | 0.00 | 0.00 | 0.00 | 49 | 1011.1 |
| 20260503193208 | 74 | 340 | 1.0 | 7.0 | 0.00 | 0.00 | 0.00 | 50 | 1011.1 |
| 20260503192703 | 73 | 8 | 2.0 | 5.0 | 0.00 | 0.00 | 0.00 | 48 | 1011.1 |
| 20260503192159 | 73 | 306 | 3.0 | 8.0 | 0.00 | 0.00 | 0.00 | 48 | 1011.2 |
| 20260503191655 | 73 | 294 | 4.0 | 6.0 | 0.00 | 0.00 | 0.00 | 48 | 1011.3 |
| 20260503191153 | 73 | 10 | 4.0 | 8.0 | 0.00 | 0.00 | 0.00 | 48 | 1011.3 |
| 20260503190649 | 73 | 291 | 6.0 | 8.0 | 0.00 | 0.00 | 0.00 | 48 | 1011.4 |
| 20260503190146 | 72 | 304 | 12.0 | 13.0 | 0.00 | 0.00 | 0.00 | 48 | 1011.3 |
| 20260503185643 | 72 | 274 | 2.0 | 10.0 | 0.00 | 0.00 | 0.00 | 52 | 1011.5 |
| 20260503185138 | 72 | 283 | 4.0 | 11.0 | 0.00 | 0.00 | 0.00 | 47 | 1011.5 |
| 20260503184634 | 72 | 300 | 5.0 | 9.0 | 0.00 | 0.00 | 0.00 | 50 | 1011.6 |
| 20260503184130 | 72 | 279 | 3.0 | 8.0 | 0.00 | 0.00 | 0.00 | 51 | 1011.6 |
| 20260503183627 | 72 | 276 | 2.0 | 10.0 | 0.00 | 0.00 | 0.00 | 52 | 1011.7 |
| 20260503183124 | 72 | 327 | 4.0 | 7.0 | 0.00 | 0.00 | 0.00 | 54 | 1011.7 |
| 20260503182622 | 71 | 317 | 4.0 | 9.0 | 0.00 | 0.00 | 0.00 | 57 | 1011.4 |
| 20260503182120 | 70 | 286 | 3.0 | 9.0 | 0.00 | 0.00 | 0.00 | 59 | 1011.7 |
| 20260503181617 | 70 | 261 | 2.0 | 9.0 | 0.00 | 0.00 | 0.00 | 59 | 1011.7 |
| 20260503181114 | 70 | 347 | 3.0 | 8.0 | 0.00 | 0.00 | 0.00 | 56 | 1011.8 |
| 20260503180611 | 70 | 26 | 2.0 | 11.0 | 0.00 | 0.00 | 0.00 | 58 | 1011.9 |
| 20260503180109 | 69 | 276 | 3.0 | 13.0 | 0.00 | 0.00 | 0.00 | 61 | 1012.0 |
| 20260503175605 | 70 | 322 | 2.0 | 5.0 | 0.00 | 0.00 | 0.00 | 58 | 1012.1 |
| 20260503175102 | 69 | 0 | 3.0 | 7.0 | 0.00 | 0.00 | 0.00 | 59 | 1012.2 |
| 20260503174559 | 69 | 310 | 2.0 | 6.0 | 0.00 | 0.00 | 0.00 | 60 | 1012.1 |
| 20260503174056 | 68 | 309 | 0.0 | 5.0 | 0.00 | 0.00 | 0.00 | 63 | 1012.2 |
| 20260503173551 | 69 | 32 | 2.0 | 6.0 | 0.00 | 0.00 | 0.00 | 61 | 1012.1 |
| 20260503173047 | 68 | 351 | 4.0 | 6.0 | 0.00 | 0.00 | 0.00 | 63 | 1012.2 |
| 20260503172545 | 68 | 348 | 1.0 | 5.0 | 0.00 | 0.00 | 0.00 | 62 | 1012.4 |
| 20260503172042 | 67 | 307 | 2.0 | 3.0 | 0.00 | 0.00 | 0.00 | 64 | 1012.3 |
| 20260503171538 | 67 | 344 | 2.0 | 4.0 | 0.00 | 0.00 | 0.00 | 63 | 1012.4 |
| 20260503171036 | 66 | 340 | 2.0 | 4.0 | 0.00 | 0.00 | 0.00 | 64 | 1012.4 |
| 20260503170532 | 66 | 355 | 3.0 | 4.0 | 0.00 | 0.00 | 0.00 | 64 | 1012.5 |
| 20260503150907 | 55 | 212 | 0.0 | 3.0 | 0.00 | 0.00 | 0.00 | 85 | 1012.8 |
| 20260503150403 | 54 | 254 | 1.0 | 4.0 | 0.00 | 0.00 | 0.00 | 86 | 1012.9 |
| 20260503131256 | 49 | 8 | 2.0 | 3.0 | 0.00 | 0.00 | 0.00 | 92 | 1012.5 |
| 20260503130754 | 49 | 55 | 0.0 | 3.0 | 0.00 | 0.00 | 0.00 | 92 | 1012.5 |
| 20260503130251 | 49 | 69 | 2.0 | 3.0 | 0.00 | 0.00 | 0.00 | 92 | 1012.4 |
| 20260503120217 | 50 | 74 | 0.0 | 3.0 | 0.00 | 0.00 | 0.00 | 91 | 1012.8 |
| 20260503110645 | 51 | 77 | 3.0 | 3.0 | 0.00 | 0.00 | 0.00 | 90 | 1012.7 |
| 20260503110142 | 51 | 97 | 3.0 | 4.0 | 0.00 | 0.00 | 0.00 | 90 | 1012.7 |
| 20260503100109 | 52 | 84 | 2.0 | 3.0 | 0.00 | 0.00 | 0.00 | 88 | 1012.5 |
| 20260503081458 | 54 | 88 | 2.0 | 4.0 | 0.00 | 0.00 | 0.00 | 82 | 1012.9 |
| 20260503080955 | 54 | 92 | 3.0 | 5.0 | 0.00 | 0.00 | 0.00 | 81 | 1012.7 |
| 20260503080451 | 54 | 85 | 2.0 | 4.0 | 0.00 | 0.00 | 0.00 | 81 | 1012.7 |
| 20260503072928 | 55 | 99 | 3.0 | 4.0 | 0.00 | 0.00 | 0.00 | 79 | 1012.5 |
| 20260503072425 | 55 | 92 | 2.0 | 3.0 | 0.00 | 0.00 | 0.00 | 78 | 1012.8 |
| 20260503071922 | 56 | 93 | 3.0 | 4.0 | 0.00 | 0.00 | 0.00 | 77 | 1012.5 |
| 20260503071419 | 56 | 87 | 3.0 | 4.0 | 0.00 | 0.00 | 0.00 | 76 | 1012.6 |
| 20260503070915 | 57 | 85 | 2.0 | 5.0 | 0.00 | 0.00 | 0.00 | 75 | 1012.6 |
| 20260503070412 | 57 | 94 | 3.0 | 5.0 | 0.00 | 0.00 | 0.00 | 74 | 1012.8 |
| 20260503060338 | 60 | 68 | 2.0 | 3.0 | 0.00 | 0.00 | 0.00 | 64 | 1012.2 |
| 20260503054826 | 59 | 63 | 1.0 | 3.0 | 0.00 | 0.00 | 0.00 | 68 | 1012.3 |
| 20260503054322 | 59 | 62 | 2.0 | 3.0 | 0.00 | 0.00 | 0.00 | 67 | 1012.3 |
| 20260503053820 | 59 | 97 | 2.0 | 3.0 | 0.00 | 0.00 | 0.00 | 69 | 1012.4 |
| 20260503053318 | 60 | 79 | 2.0 | 3.0 | 0.00 | 0.00 | 0.00 | 69 | 1012.3 |
| 20260503052814 | 60 | 81 | 2.0 | 3.0 | 0.00 | 0.00 | 0.00 | 68 | 1012.4 |
| 20260503052311 | 60 | 79 | 2.0 | 3.0 | 0.00 | 0.00 | 0.00 | 67 | 1012.3 |
| 20260503051807 | 61 | 98 | 2.0 | 3.0 | 0.00 | 0.00 | 0.00 | 65 | 1012.4 |
| 20260503051304 | 62 | 68 | 2.0 | 3.0 | 0.00 | 0.00 | 0.00 | 63 | 1012.2 |
| 20260503050800 | 62 | 73 | 2.0 | 2.0 | 0.00 | 0.00 | 0.00 | 61 | 1012.1 |
| 20260503050257 | 62 | 110 | 1.0 | 3.0 | 0.00 | 0.00 | 0.00 | 60 | 1012.2 |
| 20260503045754 | 63 | 77 | 1.0 | 2.0 | 0.00 | 0.00 | 0.00 | 60 | 1012.2 |
| 20260503045252 | 63 | 97 | 1.0 | 2.0 | 0.00 | 0.00 | 0.00 | 59 | 1012.0 |
| 20260503044747 | 63 | 340 | 2.0 | 3.0 | 0.00 | 0.00 | 0.00 | 59 | 1011.9 |
| 20260503044239 | 63 | 75 | 1.0 | 4.0 | 0.00 | 0.00 | 0.00 | 59 | 1012.1 |
| 20260503043736 | 63 | 59 | 0.0 | 3.0 | 0.00 | 0.00 | 0.00 | 59 | 1011.9 |
| 20260503043228 | 64 | 44 | 3.0 | 3.0 | 0.00 | 0.00 | 0.00 | 58 | 1012.0 |
| 20260503042723 | 64 | 68 | 1.0 | 3.0 | 0.00 | 0.00 | 0.00 | 59 | 1011.9 |
| 20260503042221 | 64 | 82 | 1.0 | 2.0 | 0.00 | 0.00 | 0.00 | 59 | 1011.9 |
| 20260503041716 | 63 | 83 | 0.0 | 3.0 | 0.00 | 0.00 | 0.00 | 59 | 1011.7 |
| 20260503041214 | 63 | 35 | 1.0 | 1.0 | 0.00 | 0.00 | 0.00 | 60 | 1011.8 |
| 20260503040711 | 63 | 37 | 0.0 | 2.0 | 0.00 | 0.00 | 0.00 | 60 | 1011.6 |
| 20260503040209 | 64 | 72 | 0.0 | 2.0 | 0.00 | 0.00 | 0.00 | 59 | 1011.6 |
| 20260503035706 | 64 | 124 | 0.0 | 2.0 | 0.00 | 0.00 | 0.00 | 58 | 1011.4 |
| 20260503035203 | 65 | 144 | 0.0 | 2.0 | 0.00 | 0.00 | 0.00 | 58 | 1011.6 |
| 20260503034701 | 66 | 296 | 0.0 | 4.0 | 0.00 | 0.00 | 0.00 | 56 | 1011.3 |
| 20260503034157 | 66 | 315 | 0.0 | 2.0 | 0.00 | 0.00 | 0.00 | 55 | 1011.2 |
| 20260503033655 | 66 | 309 | 3.0 | 5.0 | 0.00 | 0.00 | 0.00 | 54 | 1011.2 |
| 20260503033152 | 66 | 328 | 2.0 | 3.0 | 0.00 | 0.00 | 0.00 | 54 | 1011.0 |
| 20260503032650 | 66 | 303 | 2.0 | 3.0 | 0.00 | 0.00 | 0.00 | 54 | 1010.8 |
| 20260503032149 | 67 | 309 | 0.0 | 2.0 | 0.00 | 0.00 | 0.00 | 54 | 1010.7 |
| 20260503031645 | 68 | 332 | 0.0 | 2.0 | 0.00 | 0.00 | 0.00 | 52 | 1011.0 |
| 20260503031143 | 68 | 316 | 2.0 | 3.0 | 0.00 | 0.00 | 0.00 | 51 | 1010.8 |
| 20260503030639 | 69 | 326 | 2.0 | 4.0 | 0.00 | 0.00 | 0.00 | 50 | 1010.7 |
| 20260503030136 | 69 | 338 | 3.0 | 3.0 | 0.00 | 0.00 | 0.00 | 49 | 1011.1 |
| 20260503025632 | 70 | 295 | 3.0 | 5.0 | 0.00 | 0.00 | 0.00 | 48 | 1010.7 |
| 20260503025131 | 69 | 352 | 1.0 | 4.0 | 0.00 | 0.00 | 0.00 | 48 | 1011.0 |
| 20260503024627 | 70 | 300 | 4.0 | 5.0 | 0.00 | 0.00 | 0.00 | 48 | 1010.6 |
| 20260503024124 | 70 | 328 | 0.0 | 4.0 | 0.00 | 0.00 | 0.00 | 48 | 1011.0 |
| 20260503023621 | 70 | 3 | 4.0 | 7.0 | 0.00 | 0.00 | 0.00 | 47 | 1010.6 |
| 20260503023118 | 71 | 294 | 3.0 | 5.0 | 0.00 | 0.00 | 0.00 | 46 | 1010.7 |
| 20260503022614 | 70 | 301 | 2.0 | 7.0 | 0.00 | 0.00 | 0.00 | 46 | 1010.7 |
| 20260503022108 | 71 | 338 | 3.0 | 11.0 | 0.00 | 0.00 | 0.00 | 46 | 1010.8 |
| 20260503021606 | 71 | 302 | 7.0 | 10.0 | 0.00 | 0.00 | 0.00 | 45 | 1010.7 |
| 20260503021103 | 71 | 320 | 3.0 | 7.0 | 0.00 | 0.00 | 0.00 | 45 | 1010.8 |
| 20260503020559 | 71 | 347 | 5.0 | 8.0 | 0.00 | 0.00 | 0.00 | 45 | 1010.4 |
| 20260503020056 | 71 | 304 | 3.0 | 7.0 | 0.00 | 0.00 | 0.00 | 45 | 1010.6 |
| 20260503015553 | 71 | 335 | 4.0 | 9.0 | 0.00 | 0.00 | 0.00 | 44 | 1010.7 |
| 20260503015051 | 72 | 314 | 4.0 | 8.0 | 0.00 | 0.00 | 0.00 | 44 | 1011.0 |
| 20260503014546 | 71 | 289 | 6.0 | 9.0 | 0.00 | 0.00 | 0.00 | 43 | 1010.8 |
| 20260503014044 | 72 | 313 | 4.0 | 12.0 | 0.00 | 0.00 | 0.00 | 44 | 1010.8 |
| 20260503013541 | 72 | 250 | 2.0 | 11.0 | 0.00 | 0.00 | 0.00 | 43 | 1011.1 |
| 20260503013039 | 72 | 302 | 7.0 | 11.0 | 0.00 | 0.00 | 0.00 | 42 | 1011.1 |
| 20260503012536 | 72 | 289 | 6.0 | 13.0 | 0.00 | 0.00 | 0.00 | 42 | 1011.2 |
| 20260503012032 | 72 | 15 | 4.0 | 12.0 | 0.00 | 0.00 | 0.00 | 42 | 1011.2 |
| 20260503011529 | 72 | 308 | 7.0 | 14.0 | 0.00 | 0.00 | 0.00 | 42 | 1011.4 |
| 20260503011027 | 72 | 327 | 6.0 | 16.0 | 0.00 | 0.00 | 0.00 | 42 | 1011.0 |
| 20260503010523 | 73 | 307 | 9.0 | 14.0 | 0.00 | 0.00 | 0.00 | 42 | 1011.1 |
| 20260503010021 | 73 | 302 | 10.0 | 13.0 | 0.00 | 0.00 | 0.00 | 41 | 1011.1 |
| 20260503005517 | 73 | 306 | 9.0 | 17.0 | 0.00 | 0.00 | 0.00 | 44 | 1011.2 |
| 20260503005015 | 73 | 285 | 4.0 | 9.0 | 0.00 | 0.00 | 0.00 | 48 | 1011.2 |
| 20260503004510 | 73 | 352 | 1.0 | 12.0 | 0.00 | 0.00 | 0.00 | 48 | 1011.3 |
| 20260503004009 | 74 | 326 | 10.0 | 15.0 | 0.00 | 0.00 | 0.00 | 48 | 1011.3 |
| 20260503003505 | 73 | 314 | 5.0 | 12.0 | 0.00 | 0.00 | 0.00 | 50 | 1011.2 |
| 20260503003003 | 74 | 315 | 3.0 | 9.0 | 0.00 | 0.00 | 0.00 | 51 | 1011.2 |
| 20260503002500 | 74 | 287 | 6.0 | 12.0 | 0.00 | 0.00 | 0.00 | 51 | 1011.4 |
| 20260503001955 | 74 | 293 | 4.0 | 11.0 | 0.00 | 0.00 | 0.00 | 50 | 1011.6 |
| 20260503001452 | 73 | 301 | 6.0 | 13.0 | 0.00 | 0.00 | 0.00 | 51 | 1011.3 |
| 20260503000950 | 73 | 262 | 2.0 | 8.0 | 0.00 | 0.00 | 0.00 | 52 | 1011.3 |
| 20260503000447 | 73 | 293 | 9.0 | 10.0 | 0.00 | 0.00 | 0.00 | 52 | 1011.4 |
| 20260502235944 | 74 | 301 | 4.0 | 10.0 | 0.00 | 0.00 | 0.00 | 51 | 1011.6 |
| 20260502235441 | 74 | 295 | 3.0 | 6.0 | 0.00 | 0.00 | 0.00 | 51 | 1011.6 |
| 20260502234939 | 74 | 275 | 2.0 | 11.0 | 0.00 | 0.00 | 0.00 | 52 | 1011.6 |
| 20260502234435 | 73 | 300 | 6.0 | 11.0 | 0.00 | 0.00 | 0.00 | 52 | 1011.6 |
| 20260502233932 | 74 | 325 | 4.0 | 12.0 | 0.00 | 0.00 | 0.00 | 53 | 1011.7 |
| 20260502233427 | 74 | 289 | 3.0 | 8.0 | 0.00 | 0.00 | 0.00 | 53 | 1011.4 |
| 20260502232925 | 74 | 299 | 4.0 | 13.0 | 0.00 | 0.00 | 0.00 | 53 | 1011.7 |
| 20260502232421 | 74 | 266 | 3.0 | 13.0 | 0.00 | 0.00 | 0.00 | 53 | 1011.8 |
| 20260502231918 | 74 | 286 | 5.0 | 8.0 | 0.00 | 0.00 | 0.00 | 53 | 1011.9 |
| 20260502231415 | 74 | 310 | 7.0 | 11.0 | 0.00 | 0.00 | 0.00 | 55 | 1012.0 |
| 20260502230913 | 75 | 294 | 5.0 | 7.0 | 0.00 | 0.00 | 0.00 | 54 | 1011.9 |
| 20260502230411 | 74 | 280 | 2.0 | 9.0 | 0.00 | 0.00 | 0.00 | 54 | 1012.1 |
| 20260502225908 | 74 | 326 | 2.0 | 11.0 | 0.00 | 0.00 | 0.00 | 55 | 1012.2 |
| 20260502225358 | 73 | 295 | 5.0 | 10.0 | 0.00 | 0.00 | 0.00 | 55 | 1012.2 |
| 20260502224856 | 73 | 324 | 7.0 | 10.0 | 0.00 | 0.00 | 0.00 | 55 | 1012.4 |
| 20260502224351 | 74 | 5 | 3.0 | 12.0 | 0.00 | 0.00 | 0.00 | 55 | 1012.3 |
| 20260502223849 | 73 | 287 | 6.0 | 10.0 | 0.00 | 0.00 | 0.00 | 56 | 1012.4 |
| 20260502223347 | 72 | 265 | 3.0 | 11.0 | 0.00 | 0.00 | 0.00 | 58 | 1012.4 |
| 20260502222844 | 73 | 320 | 5.0 | 11.0 | 0.00 | 0.00 | 0.00 | 57 | 1012.7 |
| 20260502222342 | 73 | 299 | 7.0 | 8.0 | 0.00 | 0.00 | 0.00 | 57 | 1012.8 |
| 20260502221837 | 72 | 313 | 4.0 | 11.0 | 0.00 | 0.00 | 0.00 | 58 | 1012.8 |
| 20260502221334 | 73 | 2 | 3.0 | 8.0 | 0.00 | 0.00 | 0.00 | 58 | 1012.8 |
| 20260502220831 | 73 | 283 | 7.0 | 13.0 | 0.00 | 0.00 | 0.00 | 58 | 1012.8 |
| 20260502220327 | 72 | 316 | 5.0 | 9.0 | 0.00 | 0.00 | 0.00 | 60 | 1012.8 |
| 20260502215824 | 72 | 344 | 4.0 | 11.0 | 0.00 | 0.00 | 0.00 | 59 | 1012.9 |
| 20260502215321 | 73 | 303 | 6.0 | 9.0 | 0.00 | 0.00 | 0.00 | 58 | 1012.9 |
| 20260502214818 | 72 | 317 | 3.0 | 11.0 | 0.00 | 0.00 | 0.00 | 59 | 1013.0 |
| 20260502214314 | 72 | 316 | 14.0 | 14.0 | 0.00 | 0.00 | 0.00 | 58 | 1013.0 |
| 20260502213811 | 73 | 313 | 3.0 | 8.0 | 0.00 | 0.00 | 0.00 | 58 | 1013.0 |
| 20260502213308 | 72 | 298 | 6.0 | 15.0 | 0.00 | 0.00 | 0.00 | 57 | 1013.1 |
| 20260502212807 | 72 | 275 | 3.0 | 7.0 | 0.00 | 0.00 | 0.00 | 57 | 1013.1 |
| 20260502212300 | 72 | 267 | 3.0 | 10.0 | 0.00 | 0.00 | 0.00 | 59 | 1013.2 |